createdAt,value
2017-12-19T00:00:48.537Z,81.25
2017-12-19T00:03:16.845Z,81.85
2017-12-19T00:05:45.112Z,81.85
2017-12-19T00:08:13.419Z,81.96
2017-12-19T00:10:42.012Z,81.57
2017-12-19T00:13:10.424Z,81.65
2017-12-19T00:15:38.711Z,80.64
2017-12-19T00:18:07.016Z,80.60
2017-12-19T00:20:35.302Z,80.41
2017-12-19T00:23:04.041Z,78.64
2017-12-19T00:25:32.328Z,77.53
2017-12-19T00:28:00.610Z,77.51
2017-12-19T00:30:28.900Z,77.58
2017-12-19T00:32:57.204Z,78.37
2017-12-19T00:35:25.482Z,79.60
2017-12-19T00:37:53.771Z,80.22
2017-12-19T00:40:22.418Z,80.78
2017-12-19T00:42:50.627Z,81.20
2017-12-19T00:45:18.927Z,81.38
2017-12-19T00:47:47.212Z,81.57
2017-12-19T00:50:15.606Z,81.68
2017-12-19T00:52:43.830Z,81.61
2017-12-19T00:55:12.130Z,81.23
2017-12-19T00:57:40.424Z,81.08
2017-12-19T01:00:08.956Z,80.98
2017-12-19T01:02:37.231Z,80.54
2017-12-19T01:05:05.657Z,80.66
2017-12-19T01:07:33.932Z,80.92
2017-12-19T01:10:02.210Z,81.17
2017-12-19T01:12:30.496Z,81.64
2017-12-19T01:14:58.771Z,81.89
2017-12-19T01:17:27.063Z,81.59
2017-12-19T01:19:55.339Z,81.04
2017-12-19T01:22:23.653Z,80.56
2017-12-19T01:24:51.930Z,80.79
2017-12-19T01:27:20.232Z,81.22
2017-12-19T01:29:48.494Z,81.69
2017-12-19T01:32:17.194Z,81.80
2017-12-19T01:34:45.436Z,81.75
2017-12-19T01:37:13.735Z,81.97
2017-12-19T01:39:42.023Z,81.85
2017-12-19T01:42:10.296Z,82.19
2017-12-19T01:44:39.598Z,82.38
2017-12-19T01:47:07.872Z,81.88
2017-12-19T01:49:36.228Z,82.01
2017-12-19T01:52:04.505Z,81.79
2017-12-19T01:54:32.817Z,81.82
2017-12-19T01:57:01.104Z,80.14
2017-12-19T01:59:29.560Z,79.48
2017-12-19T02:01:57.858Z,79.00
2017-12-19T02:04:26.148Z,79.08
2017-12-19T02:06:54.431Z,79.58
2017-12-19T02:09:22.729Z,79.82
2017-12-19T02:11:51.038Z,79.04
2017-12-19T02:14:19.303Z,79.36
2017-12-19T02:16:47.608Z,79.04
2017-12-19T02:19:15.884Z,78.83
2017-12-19T02:21:44.187Z,78.50
2017-12-19T02:24:12.455Z,78.86
2017-12-19T02:26:40.772Z,79.01
2017-12-19T02:29:09.037Z,79.12
2017-12-19T02:31:37.342Z,78.28
2017-12-19T02:34:05.619Z,78.54
2017-12-19T02:36:34.226Z,77.68
2017-12-19T02:39:02.503Z,76.93
2017-12-19T02:41:30.822Z,77.48
2017-12-19T02:43:59.116Z,78.00
2017-12-19T02:46:27.419Z,78.29
2017-12-19T02:48:55.709Z,78.96
2017-12-19T02:51:23.976Z,79.05
2017-12-19T02:53:52.267Z,78.74
2017-12-19T02:56:20.538Z,78.96
2017-12-19T02:58:48.849Z,78.57
2017-12-19T03:01:17.127Z,78.72
2017-12-19T03:03:45.456Z,79.05
2017-12-19T03:06:13.748Z,79.15
2017-12-19T03:08:41.982Z,79.40
2017-12-19T03:11:10.283Z,78.92
2017-12-19T03:13:38.539Z,78.97
2017-12-19T03:16:06.940Z,78.71
2017-12-19T03:18:35.205Z,78.52
2017-12-19T03:21:03.489Z,78.98
2017-12-19T03:23:31.972Z,79.20
2017-12-19T03:26:00.279Z,79.88
2017-12-19T03:28:28.549Z,80.00
2017-12-19T03:30:56.882Z,80.21
2017-12-19T03:33:25.161Z,80.83
2017-12-19T03:35:53.438Z,81.11
2017-12-19T03:38:21.751Z,81.13
2017-12-19T03:40:50.107Z,80.49
2017-12-19T03:43:18.377Z,80.65
2017-12-19T03:45:46.659Z,80.48
2017-12-19T03:48:14.960Z,80.74
2017-12-19T03:50:43.220Z,79.55
2017-12-19T03:53:11.515Z,80.21
2017-12-19T03:55:39.851Z,80.83
2017-12-19T03:58:08.162Z,80.83
2017-12-19T04:00:36.467Z,81.02
2017-12-19T04:03:05.299Z,81.50
2017-12-19T04:05:33.589Z,81.89
2017-12-19T04:08:01.868Z,82.42
2017-12-19T04:10:30.318Z,82.31
2017-12-19T04:12:58.547Z,82.25
2017-12-19T04:15:26.867Z,82.32
2017-12-19T04:17:55.138Z,82.73
2017-12-19T04:20:23.422Z,82.47
2017-12-19T04:22:51.737Z,82.43
2017-12-19T04:25:20.020Z,82.60
2017-12-19T04:27:48.376Z,82.46
2017-12-19T04:30:16.612Z,82.62
2017-12-19T04:32:44.924Z,82.67
2017-12-19T04:35:13.187Z,83.04
2017-12-19T04:37:41.487Z,82.78
2017-12-19T04:40:09.778Z,82.63
2017-12-19T04:42:38.116Z,82.06
2017-12-19T04:45:06.397Z,82.34
2017-12-19T04:47:34.693Z,82.55
2017-12-19T04:50:02.957Z,82.25
2017-12-19T04:52:31.233Z,82.34
2017-12-19T04:54:59.527Z,81.98
2017-12-19T04:57:27.798Z,81.81
2017-12-19T04:59:56.105Z,80.66
2017-12-19T05:02:24.375Z,80.31
2017-12-19T05:04:52.671Z,79.91
2017-12-19T05:07:20.938Z,80.29
2017-12-19T05:09:49.251Z,80.23
2017-12-19T05:12:17.552Z,79.69
2017-12-19T05:14:45.852Z,78.86
2017-12-19T05:17:14.133Z,79.01
2017-12-19T05:19:42.401Z,78.99
2017-12-19T05:22:10.704Z,79.48
2017-12-19T05:24:39.034Z,78.60
2017-12-19T05:27:07.340Z,78.22
2017-12-19T05:29:35.618Z,78.93
2017-12-19T05:32:03.914Z,79.49
2017-12-19T05:34:32.221Z,79.38
2017-12-19T05:37:00.508Z,79.84
2017-12-19T05:39:28.801Z,80.32
2017-12-19T05:41:57.104Z,80.28
2017-12-19T05:44:25.392Z,79.83
2017-12-19T05:46:53.704Z,79.16
2017-12-19T05:49:22.008Z,77.83
2017-12-19T05:51:50.279Z,78.37
2017-12-19T05:54:18.580Z,78.14
2017-12-19T05:56:46.847Z,78.40
2017-12-19T05:59:15.159Z,78.94
2017-12-19T06:01:43.426Z,79.68
2017-12-19T06:04:11.739Z,79.52
2017-12-19T06:06:40.055Z,79.82
2017-12-19T06:09:08.311Z,79.76
2017-12-19T06:11:36.601Z,78.39
2017-12-19T06:14:04.868Z,78.29
2017-12-19T06:16:33.159Z,78.02
2017-12-19T06:19:01.431Z,77.33
2017-12-19T06:21:29.719Z,77.87
2017-12-19T06:23:58.100Z,78.22
2017-12-19T06:26:26.396Z,78.48
2017-12-19T06:28:54.660Z,78.01
2017-12-19T06:31:22.966Z,77.79
2017-12-19T06:33:51.260Z,77.25
2017-12-19T06:36:19.864Z,77.83
2017-12-19T06:38:48.175Z,78.17
2017-12-19T06:41:16.447Z,78.45
2017-12-19T06:43:44.754Z,77.85
2017-12-19T06:46:13.015Z,77.85
2017-12-19T06:48:41.335Z,78.72
2017-12-19T06:51:09.618Z,79.79
2017-12-19T06:53:37.911Z,79.21
2017-12-19T06:56:06.189Z,78.62
2017-12-19T06:58:34.491Z,78.60
2017-12-19T07:01:02.824Z,78.19
2017-12-19T07:03:31.129Z,78.46
2017-12-19T07:05:59.391Z,78.80
2017-12-19T07:08:27.663Z,78.06
2017-12-19T07:10:55.985Z,78.04
2017-12-19T07:13:24.284Z,78.83
2017-12-19T07:15:52.586Z,79.24
2017-12-19T07:18:20.860Z,80.04
2017-12-19T07:20:49.148Z,80.64
2017-12-19T07:23:17.428Z,81.14
2017-12-19T07:25:45.781Z,81.41
2017-12-19T07:28:14.056Z,81.15
2017-12-19T07:30:42.372Z,81.08
2017-12-19T07:33:10.696Z,81.13
2017-12-19T07:35:38.990Z,81.02
2017-12-19T07:38:07.300Z,81.24
2017-12-19T07:40:35.560Z,81.22
2017-12-19T07:43:03.849Z,79.84
2017-12-19T07:45:32.116Z,80.04
2017-12-19T07:48:00.439Z,80.17
2017-12-19T07:50:28.744Z,80.33
2017-12-19T07:52:57.011Z,80.37
2017-12-19T07:55:25.288Z,80.20
2017-12-19T07:57:53.583Z,80.16
2017-12-19T08:00:21.875Z,80.46
2017-12-19T08:02:50.196Z,80.51
2017-12-19T08:05:18.512Z,80.93
2017-12-19T08:07:46.784Z,81.10
2017-12-19T08:10:15.070Z,80.96
2017-12-19T08:12:43.367Z,80.01
2017-12-19T08:15:11.660Z,79.62
2017-12-19T08:17:39.939Z,79.09
2017-12-19T08:20:08.236Z,79.17
2017-12-19T08:22:36.509Z,78.95
2017-12-19T08:25:04.816Z,78.65
2017-12-19T08:27:33.166Z,78.28
2017-12-19T08:30:01.441Z,78.49
2017-12-19T08:32:29.789Z,78.07
2017-12-19T08:34:58.051Z,77.80
2017-12-19T08:37:26.390Z,77.67
2017-12-19T08:39:54.691Z,77.26
2017-12-19T08:42:22.972Z,79.00
2017-12-19T08:44:51.243Z,79.52
2017-12-19T08:47:19.554Z,79.29
2017-12-19T08:49:49.055Z,79.20
2017-12-19T08:52:17.383Z,79.10
2017-12-19T08:54:45.661Z,78.89
2017-12-19T08:57:13.965Z,78.52
2017-12-19T08:59:42.254Z,78.31
2017-12-19T09:02:10.860Z,77.87
2017-12-19T09:04:39.123Z,77.83
2017-12-19T09:07:07.409Z,78.65
2017-12-19T09:09:35.756Z,78.08
2017-12-19T09:12:03.994Z,79.03
2017-12-19T09:14:32.658Z,78.05
2017-12-19T09:17:00.955Z,77.33
2017-12-19T09:19:29.778Z,76.06
2017-12-19T09:21:58.055Z,76.52
2017-12-19T09:24:26.356Z,75.93
2017-12-19T09:26:54.636Z,75.90
2017-12-19T09:29:22.943Z,76.62
2017-12-19T09:31:51.223Z,76.70
2017-12-19T09:34:19.659Z,76.25
2017-12-19T09:36:47.899Z,77.35
2017-12-19T09:39:16.192Z,78.17
2017-12-19T09:41:44.655Z,77.94
2017-12-19T09:44:12.919Z,78.42
2017-12-19T09:46:41.232Z,77.95
2017-12-19T09:49:09.594Z,78.72
2017-12-19T09:51:37.880Z,78.47
2017-12-19T09:54:06.195Z,78.64
2017-12-19T09:56:34.525Z,78.86
2017-12-19T09:59:02.887Z,78.61
2017-12-19T10:01:31.183Z,78.01
2017-12-19T10:03:59.766Z,77.61
2017-12-19T10:06:28.087Z,77.76
2017-12-19T10:08:56.436Z,77.36
2017-12-19T10:11:24.789Z,76.97
2017-12-19T10:13:53.131Z,75.71
2017-12-19T10:16:21.439Z,76.31
2017-12-19T10:18:49.790Z,77.53
2017-12-19T10:21:18.047Z,77.21
2017-12-19T10:23:46.465Z,77.05
2017-12-19T10:26:14.754Z,77.33
2017-12-19T10:28:43.075Z,77.66
2017-12-19T10:31:11.392Z,77.34
2017-12-19T10:33:39.832Z,77.05
2017-12-19T10:36:08.087Z,77.00
2017-12-19T10:38:36.496Z,77.19
2017-12-19T10:41:05.792Z,77.02
2017-12-19T10:43:34.163Z,77.08
2017-12-19T10:46:02.434Z,77.74
2017-12-19T10:48:30.731Z,77.32
2017-12-19T10:50:59.035Z,76.40
2017-12-19T10:53:27.320Z,77.26
2017-12-19T10:55:55.676Z,77.29
2017-12-19T10:58:24.026Z,77.86
2017-12-19T11:00:52.343Z,77.84
2017-12-19T11:03:20.627Z,78.04
2017-12-19T11:05:48.928Z,77.29
2017-12-19T11:08:17.194Z,78.16
2017-12-19T11:10:45.541Z,77.93
2017-12-19T11:13:13.847Z,78.47
2017-12-19T11:15:42.320Z,79.01
2017-12-19T11:18:10.676Z,78.42
2017-12-19T11:20:39.078Z,78.07
2017-12-19T11:23:07.315Z,77.42
2017-12-19T11:25:35.772Z,77.51
2017-12-19T11:28:04.073Z,77.11
2017-12-19T11:30:32.343Z,77.77
2017-12-19T11:33:00.655Z,77.79
2017-12-19T11:35:28.967Z,78.38
2017-12-19T11:37:57.263Z,77.94
2017-12-19T11:40:25.536Z,78.02
2017-12-19T11:42:53.834Z,78.21
2017-12-19T11:45:22.100Z,78.13
2017-12-19T11:47:50.414Z,77.42
2017-12-19T11:50:18.736Z,77.04
2017-12-19T11:52:47.070Z,76.96
2017-12-19T11:55:15.339Z,76.73
2017-12-19T11:57:43.623Z,77.07
2017-12-19T12:00:12.603Z,77.04
2017-12-19T12:02:40.987Z,76.94
2017-12-19T12:05:09.602Z,77.05
2017-12-19T12:07:37.887Z,76.16
2017-12-19T12:10:06.228Z,76.71
2017-12-19T12:12:35.080Z,76.40
2017-12-19T12:15:03.436Z,75.78
2017-12-19T12:17:31.712Z,76.16
2017-12-19T12:20:00.007Z,75.58
2017-12-19T12:22:28.278Z,75.14
2017-12-19T12:24:56.563Z,74.86
2017-12-19T12:27:24.885Z,75.12
2017-12-19T12:29:53.181Z,75.16
2017-12-19T12:32:21.492Z,75.08
2017-12-19T12:34:49.763Z,75.13
2017-12-19T12:37:18.062Z,74.95
2017-12-19T12:39:46.867Z,74.57
2017-12-19T12:42:15.219Z,74.20
2017-12-19T12:44:43.518Z,74.53
2017-12-19T12:47:11.812Z,74.65
2017-12-19T12:49:40.125Z,74.63
2017-12-19T12:52:08.555Z,74.95
2017-12-19T12:54:36.868Z,75.36
2017-12-19T12:57:05.238Z,75.04
2017-12-19T12:59:33.522Z,75.75
2017-12-19T13:02:02.815Z,75.59
2017-12-19T13:04:31.227Z,75.02
2017-12-19T13:06:59.487Z,74.96
2017-12-19T13:09:27.815Z,74.64
2017-12-19T13:11:56.074Z,74.94
2017-12-19T13:14:24.376Z,75.27
2017-12-19T13:16:52.671Z,75.05
2017-12-19T13:19:21.010Z,74.68
2017-12-19T13:21:49.300Z,74.60
2017-12-19T13:24:17.639Z,75.01
2017-12-19T13:26:45.940Z,75.93
2017-12-19T13:29:14.278Z,76.08
2017-12-19T13:31:42.569Z,76.10
2017-12-19T13:34:11.088Z,75.88
2017-12-19T13:36:39.392Z,74.93
2017-12-19T13:39:07.699Z,75.25
2017-12-19T13:41:36.089Z,75.70
2017-12-19T13:44:04.356Z,76.12
2017-12-19T13:46:32.669Z,76.21
2017-12-19T13:49:00.926Z,77.14
2017-12-19T13:51:29.247Z,78.29
2017-12-19T13:53:57.540Z,78.87
2017-12-19T13:56:25.845Z,79.20
2017-12-19T13:58:54.125Z,78.67
2017-12-19T14:01:22.445Z,78.33
2017-12-19T14:03:50.779Z,78.90
2017-12-19T14:06:19.071Z,78.82
2017-12-19T14:08:47.376Z,78.73
2017-12-19T14:11:15.663Z,78.54
2017-12-19T14:13:43.964Z,78.06
2017-12-19T14:16:12.247Z,77.26
2017-12-19T14:18:40.556Z,77.15
2017-12-19T14:21:08.833Z,76.96
2017-12-19T14:23:37.203Z,76.91
2017-12-19T14:26:05.504Z,77.23
2017-12-19T14:28:33.839Z,77.15
2017-12-19T14:31:02.127Z,76.96
2017-12-19T14:33:30.788Z,76.93
2017-12-19T14:35:59.052Z,76.45
2017-12-19T14:38:27.365Z,76.69
2017-12-19T14:40:55.652Z,76.98
2017-12-19T14:43:23.924Z,76.83
2017-12-19T14:45:52.227Z,76.62
2017-12-19T14:48:20.515Z,76.42
2017-12-19T14:50:48.813Z,76.96
2017-12-19T14:53:17.097Z,76.91
2017-12-19T14:55:45.386Z,77.02
2017-12-19T14:58:13.690Z,77.51
2017-12-19T15:00:42.143Z,77.69
2017-12-19T15:03:10.420Z,77.92
2017-12-19T15:05:38.742Z,77.23
2017-12-19T15:08:07.067Z,77.08
2017-12-19T15:10:35.391Z,76.99
2017-12-19T15:13:04.488Z,77.27
2017-12-19T15:15:33.074Z,77.72
2017-12-19T15:18:01.349Z,77.68
2017-12-19T15:20:29.608Z,77.24
2017-12-19T15:22:57.934Z,76.77
2017-12-19T15:25:26.224Z,76.54
2017-12-19T15:27:54.518Z,76.05
2017-12-19T15:30:22.835Z,75.94
2017-12-19T15:32:51.227Z,76.02
2017-12-19T15:35:19.520Z,75.92
2017-12-19T15:37:47.864Z,76.33
2017-12-19T15:40:16.177Z,76.08
2017-12-19T15:42:44.493Z,76.74
2017-12-19T15:45:12.903Z,77.55
2017-12-19T15:47:41.179Z,77.61
2017-12-19T15:50:09.474Z,77.40
2017-12-19T15:52:38.451Z,77.22
2017-12-19T15:55:06.780Z,77.41
2017-12-19T15:57:35.058Z,77.43
2017-12-19T16:00:03.358Z,77.33
2017-12-19T16:02:31.667Z,76.70
2017-12-19T16:05:01.532Z,76.94
2017-12-19T16:07:30.470Z,77.04
2017-12-19T16:09:58.811Z,77.14
2017-12-19T16:12:27.078Z,77.15
2017-12-19T16:14:55.436Z,77.62
2017-12-19T16:17:23.844Z,78.02
2017-12-19T16:19:52.092Z,78.35
2017-12-19T16:22:20.413Z,78.36
2017-12-19T16:24:48.671Z,78.45
2017-12-19T16:27:16.976Z,78.77
2017-12-19T16:29:45.256Z,78.99
2017-12-19T16:32:13.568Z,78.35
2017-12-19T16:34:41.879Z,78.23
2017-12-19T16:37:10.956Z,78.28
2017-12-19T16:39:39.244Z,78.85
2017-12-19T16:42:07.570Z,78.77
2017-12-19T16:44:36.135Z,78.86
2017-12-19T16:47:05.240Z,79.03
2017-12-19T16:49:33.578Z,79.32
2017-12-19T16:52:01.822Z,78.68
2017-12-19T16:54:30.147Z,78.99
2017-12-19T16:56:58.417Z,79.34
2017-12-19T16:59:26.729Z,79.88
2017-12-19T17:01:55.009Z,80.01
2017-12-19T17:04:23.333Z,79.85
2017-12-19T17:06:51.840Z,79.80
2017-12-19T17:09:20.187Z,79.79
2017-12-19T17:11:48.436Z,79.96
2017-12-19T17:14:16.873Z,79.30
2017-12-19T17:16:45.155Z,80.17
2017-12-19T17:19:13.464Z,80.07
2017-12-19T17:21:41.764Z,79.96
2017-12-19T17:24:10.086Z,79.74
2017-12-19T17:26:38.379Z,79.17
2017-12-19T17:29:06.672Z,79.25
2017-12-19T17:31:35.037Z,79.51
2017-12-19T17:34:03.300Z,80.16
2017-12-19T17:36:31.599Z,80.17
2017-12-19T17:38:59.871Z,80.61
2017-12-19T17:41:28.222Z,79.49
2017-12-19T17:43:56.470Z,79.60
2017-12-19T17:46:24.756Z,79.39
2017-12-19T17:48:53.085Z,79.60
2017-12-19T17:51:21.358Z,79.95
2017-12-19T17:53:49.658Z,80.38
2017-12-19T17:56:17.936Z,80.18
2017-12-19T17:58:46.239Z,80.20
2017-12-19T18:01:14.530Z,79.82
2017-12-19T18:03:42.831Z,80.22
2017-12-19T18:06:11.141Z,80.05
2017-12-19T18:08:39.422Z,79.96
2017-12-19T18:11:07.729Z,80.15
2017-12-19T18:13:36.005Z,80.27
2017-12-19T18:16:04.424Z,79.93
2017-12-19T18:18:32.699Z,79.73
2017-12-19T18:21:01.030Z,80.03
2017-12-19T18:23:29.325Z,80.32
2017-12-19T18:25:57.628Z,80.85
2017-12-19T18:28:25.936Z,80.76
2017-12-19T18:30:54.211Z,80.18
2017-12-19T18:33:22.554Z,80.05
2017-12-19T18:35:50.849Z,79.71
2017-12-19T18:38:19.099Z,79.90
2017-12-19T18:40:47.386Z,79.68
2017-12-19T18:43:15.695Z,80.26
2017-12-19T18:45:43.977Z,80.88
2017-12-19T18:48:12.266Z,80.76
2017-12-19T18:50:40.535Z,80.90
2017-12-19T18:53:08.892Z,80.75
2017-12-19T18:55:38.075Z,81.04
2017-12-19T18:58:06.400Z,80.85
2017-12-19T19:00:34.705Z,81.06
2017-12-19T19:03:02.988Z,81.18
2017-12-19T19:05:32.111Z,80.49
2017-12-19T19:08:00.403Z,80.57
2017-12-19T19:10:28.754Z,80.46
2017-12-19T19:12:56.992Z,80.51
2017-12-19T19:15:25.280Z,80.54
2017-12-19T19:17:53.548Z,80.46
2017-12-19T19:20:21.847Z,80.35
2017-12-19T19:22:50.135Z,80.18
2017-12-19T19:25:18.428Z,80.50
2017-12-19T19:27:46.704Z,80.50
2017-12-19T19:30:15.030Z,80.65
2017-12-19T19:32:43.306Z,80.89
2017-12-19T19:35:11.583Z,81.01
2017-12-19T19:37:39.859Z,81.29
2017-12-19T19:40:08.157Z,81.29
2017-12-19T19:42:36.441Z,81.53
2017-12-19T19:45:04.820Z,81.07
2017-12-19T19:47:33.096Z,80.82
2017-12-19T19:50:02.455Z,80.81
2017-12-19T19:52:30.723Z,80.41
2017-12-19T19:54:59.008Z,80.71
2017-12-19T19:57:27.308Z,80.82
2017-12-19T19:59:55.601Z,80.81
2017-12-19T20:02:23.902Z,80.50
2017-12-19T20:04:52.193Z,80.47
2017-12-19T20:07:20.468Z,80.77
2017-12-19T20:09:48.748Z,80.23
2017-12-19T20:12:17.041Z,80.27
2017-12-19T20:14:45.340Z,80.73
2017-12-19T20:17:14.444Z,80.52
2017-12-19T20:19:42.743Z,80.36
2017-12-19T20:22:11.036Z,80.08
2017-12-19T20:24:39.364Z,79.75
2017-12-19T20:27:07.652Z,79.28
2017-12-19T20:29:35.935Z,79.11
2017-12-19T20:32:04.397Z,78.74
2017-12-19T20:34:32.668Z,78.96
2017-12-19T20:37:01.169Z,78.90
2017-12-19T20:39:29.445Z,78.60
2017-12-19T20:41:57.735Z,78.68
2017-12-19T20:44:26.032Z,79.48
2017-12-19T20:46:54.353Z,79.95
2017-12-19T20:49:22.654Z,80.43
2017-12-19T20:51:50.936Z,80.64
2017-12-19T20:54:19.219Z,80.21
2017-12-19T20:56:47.498Z,80.99
2017-12-19T20:59:15.781Z,80.83
2017-12-19T21:01:44.039Z,80.85
2017-12-19T21:04:12.327Z,81.29
2017-12-19T21:06:40.604Z,81.18
2017-12-19T21:09:08.892Z,80.99
2017-12-19T21:11:37.158Z,80.01
2017-12-19T21:14:05.452Z,79.67
2017-12-19T21:16:33.794Z,79.36
2017-12-19T21:19:02.062Z,78.96
2017-12-19T21:21:30.336Z,79.11
2017-12-19T21:23:58.603Z,79.25
2017-12-19T21:26:26.891Z,79.61
2017-12-19T21:28:55.173Z,79.30
2017-12-19T21:31:23.468Z,79.46
2017-12-19T21:33:51.725Z,79.24
2017-12-19T21:36:20.033Z,79.53
2017-12-19T21:38:48.300Z,80.40
2017-12-19T21:41:16.620Z,80.48
2017-12-19T21:43:44.922Z,80.08
2017-12-19T21:46:13.248Z,79.75
2017-12-19T21:48:41.502Z,79.71
2017-12-19T21:51:09.839Z,80.10
2017-12-19T21:53:38.132Z,79.96
2017-12-19T21:56:06.407Z,80.08
2017-12-19T21:58:34.700Z,79.77
2017-12-19T22:01:02.982Z,80.26
2017-12-19T22:03:32.141Z,80.08
2017-12-19T22:06:00.435Z,79.97
2017-12-19T22:08:28.725Z,80.30
2017-12-19T22:10:57.062Z,80.44
2017-12-19T22:13:25.308Z,80.34
2017-12-19T22:15:53.589Z,80.22
2017-12-19T22:18:22.021Z,79.94
2017-12-19T22:20:50.291Z,80.18
2017-12-19T22:23:18.565Z,80.57
2017-12-19T22:25:46.847Z,81.11
2017-12-19T22:28:15.187Z,81.28
2017-12-19T22:30:43.511Z,80.86
2017-12-19T22:33:11.780Z,80.60
2017-12-19T22:35:40.056Z,80.39
2017-12-19T22:38:08.326Z,80.37
2017-12-19T22:40:36.658Z,80.31
2017-12-19T22:43:05.162Z,80.00
2017-12-19T22:45:33.479Z,79.96
2017-12-19T22:48:01.762Z,80.37
2017-12-19T22:50:30.007Z,80.31
2017-12-19T22:52:58.415Z,79.95
2017-12-19T22:55:26.695Z,79.84
2017-12-19T22:57:54.974Z,80.20
2017-12-19T23:00:23.261Z,79.85
2017-12-19T23:02:51.550Z,80.03
2017-12-19T23:05:19.806Z,80.59
2017-12-19T23:07:48.924Z,80.69
2017-12-19T23:10:17.201Z,81.05
2017-12-19T23:12:45.476Z,81.20
2017-12-19T23:15:13.770Z,81.06
2017-12-19T23:17:42.012Z,80.87
2017-12-19T23:20:10.298Z,80.62
2017-12-19T23:22:38.559Z,80.59
2017-12-19T23:25:06.857Z,80.91
2017-12-19T23:27:35.111Z,80.75
2017-12-19T23:30:03.413Z,80.85
2017-12-19T23:32:31.672Z,80.75
2017-12-19T23:34:59.965Z,80.30
2017-12-19T23:37:28.224Z,80.52
2017-12-19T23:39:56.516Z,80.84
2017-12-19T23:42:24.843Z,81.10
2017-12-19T23:44:53.082Z,80.70
2017-12-19T23:47:21.335Z,80.57
2017-12-19T23:49:49.642Z,80.51
2017-12-19T23:52:17.929Z,80.77
2017-12-19T23:54:46.492Z,80.92
2017-12-19T23:57:14.769Z,81.18
2017-12-19T23:59:43.026Z,81.06
